Flight Track Log - Related Links

Times and Time Zones

All times are in EDT time to prevent confusion due to time zone crossing. See the XOJ549 flight status page for this flight to view local times or setup timezone preferences in your user account.

Time Position Orientation Groundspeed Altitude Reporting Facility
EDT Latitude Longitude Course Direction KTS MPH feet Rate Location/Type
Wed 06:08:40 PM 34.1772 -118.4867 106° East 163 188 41,000  Level Los Angeles Center
Wed 06:09:42 PM 34.1628 -118.4256 106° East 225 259 5,800 -15,097 Descending Los Angeles Center
Wed 06:10:44 PM 34.2247 -118.4272 359° North 234 269 9,800 3,677 Climbing Los Angeles Center
Wed 06:11:46 PM 34.2961 -118.4325 357° North 263 303 13,400 3,435 Climbing Los Angeles Center
Wed 06:12:48 PM 34.3706 -118.3875 27° Northeast 296 341 16,900 2,956 Climbing Los Angeles Center
Wed 06:14:02 PM 34.4486 -118.3425 25° Northeast 310 357 20,100 2,934 Climbing Los Angeles Center
Wed 06:15:05 PM 34.5228 -118.2397 49° Northeast 343 395 23,600 3,120 Climbing Los Angeles Center
Wed 06:16:07 PM 34.5889 -118.1333 53° Northeast 350 403 26,600 2,565 Climbing Los Angeles Center
Wed 06:17:09 PM 34.6350 -118.0247 63° Northeast 369 425 28,900 2,032 Climbing Los Angeles Center
Wed 06:18:11 PM 34.6525 -117.8811 82° East 394 453 30,800 1,742 Climbing Los Angeles Center
Wed 06:19:13 PM 34.6725 -117.7294 81° East 413 475 32,500 1,536 Climbing Los Angeles Center
Wed 06:20:16 PM 34.7089 -117.5908 72° East 433 498 34,000 1,296 Climbing Los Angeles Center
Wed 06:21:18 PM 34.7442 -117.4486 73° East 442 509 35,200 1,065 Climbing Los Angeles Center
Wed 06:22:20 PM 34.7831 -117.3025 72° East 456 525 36,200 968 Climbing Los Angeles Center
Wed 06:23:22 PM 34.8200 -117.1497 74° East 472 543 37,200 1,065 Climbing Los Angeles Center
Wed 06:24:24 PM 34.8672 -116.9642 73° East 481 554 38,400 1,065 Climbing Los Angeles Center
Wed 06:25:26 PM 34.9050 -116.8092 73° East 481 554 39,400 823 Climbing Los Angeles Center
Wed 06:26:28 PM 34.9561 -116.6611 67° East 479 551 40,100 532 Climbing Los Angeles Center
Wed 06:27:30 PM 35.0439 -116.5397 49° Northeast 479 551 40,500 435 Climbing Los Angeles Center
Wed 06:28:32 PM 35.1356 -116.4197 47° Northeast 484 557 41,000 242 Climbing Los Angeles Center
Wed 06:29:34 PM 35.2486 -116.2725 47° Northeast 498 573 41,000  Level Los Angeles Center
Wed 06:30:37 PM 35.3397 -116.1486 48° Northeast 493 567 41,000  Level Los Angeles Center
Wed 06:31:39 PM 35.4311 -116.0267 47° Northeast 488 562 41,000  Level Los Angeles Center
Wed 06:32:41 PM 35.5253 -115.9056 46° Northeast 490 564 41,000  Level Los Angeles Center
Wed 06:33:43 PM 35.6314 -115.7658 47° Northeast 485 558 41,000  Level Los Angeles Center
Wed 06:34:45 PM 35.7228 -115.6422 48° Northeast 488 562 41,000  Level Los Angeles Center
Wed 06:35:47 PM 35.8139 -115.5208 47° Northeast 485 558 41,000  Level Los Angeles Center
Wed 06:36:49 PM 35.9028 -115.3975 48° Northeast 483 556 41,000  Level Los Angeles Center
Wed 06:37:51 PM 36.0119 -115.2519 47° Northeast 485 558 41,000  Level Los Angeles Center
Wed 06:38:53 PM 36.1019 -115.1294 48° Northeast 484 557 41,000  Level Los Angeles Center
Wed 06:39:55 PM 36.1969 -115.0106 45° Northeast 489 563 41,000  Level Los Angeles Center
Wed 06:40:58 PM 36.2911 -114.8917 45° Northeast 488 562 41,000  Level Los Angeles Center
Wed 06:42:00 PM 36.3844 -114.7731 46° Northeast 485 558 41,000  Level Los Angeles Center
Wed 06:43:02 PM 36.4950 -114.6278 47° Northeast 485 558 41,000  Level Los Angeles Center
Wed 06:44:04 PM 36.5881 -114.5072 46° Northeast 486 559 41,000  Level Los Angeles Center
Wed 06:45:06 PM 36.6806 -114.3850 47° Northeast 486 559 41,000  Level Los Angeles Center
Wed 06:46:08 PM 36.7703 -114.2594 48° Northeast 487 560 41,000  Level Los Angeles Center
Wed 06:47:10 PM 36.8397 -114.1139 59° Northeast 490 564 41,000  Level Los Angeles Center
Wed 06:48:12 PM 36.9097 -113.9678 59° Northeast 492 566 41,000  Level Los Angeles Center
Wed 06:49:14 PM 36.9936 -113.7944 59° Northeast 486 559 41,000  Level Los Angeles Center
Wed 06:50:16 PM 37.0625 -113.6500 59° Northeast 486 559 41,000  Level Los Angeles Center
Wed 06:51:18 PM 37.1306 -113.5056 59° Northeast 485 558 41,000  Level Los Angeles Center
Wed 06:52:20 PM 37.1986 -113.3625 59° Northeast 481 554 41,000  Level Los Angeles Center
Wed 06:52:38 PM 37.2244 -113.3056 60° Northeast 480 552 41,000  Level Salt Lake Center
Wed 06:53:39 PM 37.2917 -113.1619 59° Northeast 479 551 41,000  Level Salt Lake Center
Wed 06:54:41 PM 37.3581 -113.0178 60° Northeast 480 552 41,000  Level Salt Lake Center
Wed 06:55:43 PM 37.4250 -112.8747 59° Northeast 481 554 41,000  Level Salt Lake Center
Wed 06:56:44 PM 37.4911 -112.7331 60° Northeast 483 556 41,000  Level Salt Lake Center
Wed 06:57:46 PM 37.5717 -112.5628 59° Northeast 482 555 41,000  Level Salt Lake Center
Wed 06:58:47 PM 37.6381 -112.4183 60° Northeast 481 554 41,000  Level Salt Lake Center
Wed 06:59:49 PM 37.7067 -112.2756 59° Northeast 480 552 41,000  Level Salt Lake Center
Wed 07:00:51 PM 37.7844 -112.1414 54° Northeast 477 549 41,000  Level Salt Lake Center
Wed 07:01:53 PM 37.8631 -112.0067 54° Northeast 477 549 41,000  Level Salt Lake Center
Wed 07:02:54 PM 37.9411 -111.8708 54° Northeast 477 549 41,000  Level Salt Lake Center
Wed 07:03:56 PM 38.0189 -111.7353 54° Northeast 477 549 41,000 98 Level Salt Lake Center
Wed 07:04:57 PM 38.1119 -111.5717 54° Northeast 478 550 41,200 341 Climbing Salt Lake Center
Wed 07:05:59 PM 38.1903 -111.4353 54° Northeast 479 551 41,700 488 Climbing Salt Lake Center
Wed 07:07:00 PM 38.2658 -111.2978 55° Northeast 476 548 42,200 488 Climbing Salt Lake Center
Wed 07:08:02 PM 38.3428 -111.1636 54° Northeast 472 543 42,700 488 Climbing Salt Lake Center
Wed 07:09:03 PM 38.4186 -111.0275 55° Northeast 471 542 43,200 488 Climbing Salt Lake Center
Wed 07:10:05 PM 38.4956 -110.8897 54° Northeast 466 536 43,700 532 Climbing Salt Lake Center
Wed 07:11:07 PM 38.5783 -110.7397 55° Northeast 462 532 44,300 488 Climbing Salt Lake Center
Wed 07:12:08 PM 38.6481 -110.6136 55° Northeast 455 524 44,700 341 Climbing Salt Lake Center
Wed 07:13:10 PM 38.7175 -110.4878 55° Northeast 453 521 45,000 146 Climbing Salt Lake Center
Wed 07:14:11 PM 38.7992 -110.3397 55° Northeast 456 525 45,000  Level Salt Lake Center
Wed 07:14:27 PM 38.8211 -110.2964 57° Northeast 457 526 45,000  Level Denver Center
Wed 07:15:29 PM 38.8903 -110.1664 56° Northeast 459 528 45,000  Level Denver Center
Wed 07:16:14 PM 38.9508 -110.0611 53° Northeast 460 529 45,000  Level Salt Lake Center
Wed 07:17:16 PM 39.0203 -109.9306 56° Northeast 462 532 45,000  Level Salt Lake Center
Wed 07:18:17 PM 39.1022 -109.7783 55° Northeast 463 533 45,000  Level Salt Lake Center
Wed 07:18:35 PM 39.1131 -109.7536 61° Northeast 467 537 45,000  Level Denver Center
Wed 07:19:19 PM 39.1722 -109.6475 54° Northeast 463 533 45,000  Level Salt Lake Center
Wed 07:20:21 PM 39.2419 -109.5156 56° Northeast 465 535 45,000  Level Salt Lake Center
Wed 07:21:22 PM 39.3244 -109.3622 55° Northeast 465 535 45,000  Level Salt Lake Center
Wed 07:21:53 PM 39.3461 -109.3158 59° Northeast 466 536 45,000  Level Denver Center
Wed 07:22:55 PM 39.4394 -109.1392 56° Northeast 466 536 45,000  Level Denver Center
Wed 07:23:26 PM 39.4747 -109.0753 54° Northeast 467 537 45,000  Level Salt Lake Center
Wed 07:23:57 PM 39.5092 -109.0075 57° Northeast 464 534 45,000  Level Denver Center
Wed 07:24:59 PM 39.5792 -108.8747 56° Northeast 465 535 45,000  Level Denver Center
Wed 07:26:01 PM 39.6600 -108.7197 56° Northeast 471 542 45,000  Level Denver Center
Wed 07:27:02 PM 39.7372 -108.5717 56° Northeast 470 541 45,000  Level Denver Center
Wed 07:28:17 PM 39.8306 -108.3922 56° Northeast 470 541 45,000  Level Denver Center
Wed 07:29:19 PM 39.9022 -108.2547 56° Northeast 480 552 45,000  Level Denver Center
Wed 07:30:21 PM 39.9683 -108.1200 57° Northeast 463 533 45,000  Level Denver Center
Wed 07:31:22 PM 40.0494 -107.9611 56° Northeast 471 542 45,000  Level Denver Center
Wed 07:32:24 PM 40.0939 -107.8075 69° East 483 556 45,000  Level Denver Center
Wed 07:33:26 PM 40.1367 -107.6233 73° East 473 544 45,000  Level Denver Center
Wed 07:34:28 PM 40.1731 -107.4664 73° East 472 543 45,000  Level Denver Center
Wed 07:35:42 PM 40.2164 -107.2806 73° East 477 549 45,000  Level Denver Center
Wed 07:36:56 PM 40.2647 -107.0692 73° East 476 548 45,000  Level Denver Center
Wed 07:37:59 PM 40.3058 -106.8839 74° East 475 547 45,000  Level Denver Center
Wed 07:39:01 PM 40.3403 -106.7231 74° East 476 548 45,000  Level Denver Center
Wed 07:40:15 PM 40.3786 -106.5583 73° East 473 544 45,000  Level Denver Center
Wed 07:41:17 PM 40.4289 -106.3267 74° East 478 550 45,000  Level Denver Center
Wed 07:42:19 PM 40.4650 -106.1561 74° East 472 543 45,000  Level Denver Center
Wed 07:43:21 PM 40.5003 -105.9869 75° East 476 548 45,000  Level Denver Center
Wed 07:44:23 PM 40.5289 -105.8542 74° East 473 544 45,000  Level Denver Center
Wed 07:45:25 PM 40.5722 -105.6553 74° East 471 542 45,000  Level Denver Center
Wed 07:46:39 PM 40.6072 -105.4864 75° East 476 548 45,000  Level Denver Center
Wed 07:47:54 PM 40.6497 -105.2731 75° East 476 548 45,000  Level Denver Center
Wed 07:48:56 PM 40.6978 -105.0436 74° East 483 556 45,000  Level Denver Center
Wed 07:49:58 PM 40.7322 -104.8739 75° East 480 552 45,000  Level Denver Center
Wed 07:51:00 PM 40.7642 -104.7092 76° East 473 544 45,000  Level Denver Center
Wed 07:52:02 PM 40.8031 -104.5186 75° East 482 555 45,000  Level Denver Center
Wed 07:53:04 PM 40.8344 -104.3583 75° East 474 545 45,000  Level Denver Center
Wed 07:54:06 PM 40.8711 -104.1683 76° East 478 550 45,000  Level Denver Center
Wed 07:55:08 PM 40.9028 -104.0058 75° East 476 548 45,000  Level Denver Center
Wed 07:56:10 PM 40.9397 -103.8169 75° East 477 549 45,000  Level Denver Center
Wed 07:57:12 PM 40.9706 -103.6564 76° East 474 545 45,000  Level Denver Center
Wed 07:58:14 PM 41.0069 -103.4689 76° East 472 543 45,000  Level Denver Center
Wed 07:59:16 PM 41.0369 -103.3078 76° East 471 542 45,000  Level Denver Center
Wed 08:00:18 PM 41.0656 -103.1472 77° East 470 541 45,000  Level Denver Center
Wed 08:01:20 PM 41.0986 -102.9647 76° East 476 548 45,000  Level Denver Center
Wed 08:02:23 PM 41.1131 -102.7694 84° East 477 549 45,000  Level Denver Center
Wed 08:03:25 PM 41.1250 -102.6033 84° East 475 547 45,000  Level Denver Center
Wed 08:04:27 PM 41.1406 -102.4072 84° East 478 550 45,000  Level Denver Center
Wed 08:05:29 PM 41.1536 -102.2400 84° East 477 549 45,000  Level Denver Center
Wed 08:06:31 PM 41.1681 -102.0456 84° East 474 545 45,000  Level Denver Center
Wed 08:07:33 PM 41.1808 -101.8775 84° East 478 550 45,000  Level Denver Center
Wed 08:08:35 PM 41.1925 -101.7100 85° East 478 550 45,000  Level Denver Center
Wed 08:09:37 PM 41.2069 -101.5131 84° East 478 550 45,000  Level Denver Center
Wed 08:10:38 PM 41.2153 -101.3717 85° East 480 552 45,000  Level Denver Center
Wed 08:11:41 PM 41.2300 -101.1472 85° East 477 549 45,000  Level Denver Center
Wed 08:12:43 PM 41.2411 -100.9769 85° East 480 552 45,000  Level Denver Center
Wed 08:13:45 PM 41.2539 -100.7781 85° East 480 552 45,000  Level Denver Center
Wed 08:14:59 PM 41.2639 -100.6078 85° East 480 552 45,000  Level Denver Center
Wed 08:16:01 PM 41.2778 -100.3822 85° East 477 549 45,000  Level Denver Center
Wed 08:17:03 PM 41.2875 -100.2139 86° East 476 548 45,000  Level Denver Center
Wed 08:18:06 PM 41.2986 -100.0158 86° East 478 550 45,000  Level Denver Center
Wed 08:19:08 PM 41.3075 -99.8469 86° East 478 550 45,000  Level Denver Center
Wed 08:20:09 PM 41.3147 -99.7039 86° East 482 555 45,000  Level Denver Center
Wed 08:21:24 PM 41.3264 -99.4747 86° East 486 559 45,000  Level Denver Center
Wed 08:22:26 PM 41.3372 -99.2558 86° East 484 557 45,000  Level Denver Center
Wed 08:23:28 PM 41.3458 -99.0769 86° East 481 554 45,000  Level Denver Center
Wed 08:24:30 PM 41.3536 -98.8961 87° East 482 555 45,000  Level Denver Center
Wed 08:25:32 PM 41.3622 -98.7136 86° East 484 557 45,000  Level Denver Center
Wed 08:26:34 PM 41.3697 -98.5328 87° East 484 557 45,000  Level Denver Center
Wed 08:27:36 PM 41.3775 -98.3542 87° East 483 556 45,000  Level Minneapolis Center
Wed 08:28:38 PM 41.4056 -98.1794 78° East 479 551 45,000  Level Minneapolis Center
Wed 08:29:39 PM 41.4400 -97.9792 77° East 481 554 45,000  Level Minneapolis Center
Wed 08:30:41 PM 41.4694 -97.8056 77° East 481 554 45,000  Level Minneapolis Center
Wed 08:31:43 PM 41.4967 -97.6325 78° East 478 550 45,000  Level Minneapolis Center
Wed 08:32:45 PM 41.5256 -97.4567 78° East 482 555 45,000  Level Minneapolis Center
Wed 08:33:47 PM 41.5533 -97.2831 78° East 480 552 45,000  Level Minneapolis Center
Wed 08:34:49 PM 41.5867 -97.0744 78° East 478 550 45,000  Level Minneapolis Center
Wed 08:35:51 PM 41.6139 -96.8986 78° East 480 552 45,000  Level Minneapolis Center
Wed 08:36:53 PM 41.6419 -96.7222 78° East 483 556 45,000  Level Minneapolis Center
Wed 08:37:55 PM 41.6681 -96.5458 79° East 482 555 45,000  Level Minneapolis Center
Wed 08:38:57 PM 41.6956 -96.3678 78° East 483 556 45,000  Level Minneapolis Center
Wed 08:39:59 PM 41.7222 -96.1900 79° East 483 556 45,000  Level Minneapolis Center
Wed 08:41:01 PM 41.7486 -96.0119 79° East 483 556 45,000  Level Minneapolis Center
Wed 08:42:03 PM 41.7747 -95.8328 79° East 486 559 45,000  Level Minneapolis Center
Wed 08:43:05 PM 41.8056 -95.6189 79° East 485 558 45,000  Level Minneapolis Center
Wed 08:44:07 PM 41.8311 -95.4422 79° East 482 555 45,000  Level Minneapolis Center
Wed 08:45:09 PM 41.8567 -95.2642 79° East 484 557 45,000  Level Minneapolis Center
Wed 08:46:11 PM 41.8808 -95.0858 80° East 485 558 45,000  Level Minneapolis Center
Wed 08:47:13 PM 41.9053 -94.9075 80° East 486 559 45,000  Level Minneapolis Center
Wed 08:48:15 PM 41.9294 -94.7297 80° East 485 558 45,000  Level Minneapolis Center
Wed 08:49:17 PM 41.9528 -94.5528 80° East 480 552 45,000  Level Minneapolis Center
Wed 08:50:19 PM 41.9819 -94.3406 79° East 481 554 45,000  Level Minneapolis Center
Wed 08:51:21 PM 42.0047 -94.1619 80° East 484 557 45,000  Level Minneapolis Center
Wed 08:52:23 PM 42.0289 -93.9844 80° East 484 557 45,000  Level Minneapolis Center
Wed 08:53:25 PM 42.0514 -93.8075 80° East 482 555 45,000  Level Minneapolis Center
Wed 08:54:27 PM 42.0733 -93.6289 81° East 485 558 45,000  Level Minneapolis Center
Wed 08:55:29 PM 42.0964 -93.4531 80° East 484 557 45,000  Level Minneapolis Center
Wed 08:56:31 PM 42.1239 -93.2422 80° East 484 557 45,000  Level Minneapolis Center
Wed 08:57:33 PM 42.1425 -93.0650 82° East 484 557 45,000  Level Minneapolis Center
Wed 08:58:35 PM 42.1644 -92.8875 80° East 485 558 45,000  Level Minneapolis Center
Wed 08:59:37 PM 42.1847 -92.7086 81° East 487 560 45,000  Level Minneapolis Center
Wed 09:00:51 PM 42.2069 -92.5336 80° East 484 557 45,000  Level Minneapolis Center
Wed 09:01:54 PM 42.2342 -92.2839 82° East 486 559 45,000  Level Minneapolis Center
Wed 09:02:56 PM 42.2422 -92.1044 86° East 486 559 45,000  Level Minneapolis Center
Wed 09:03:19 PM 42.2422 -92.0306 90° East 487 560 45,000  Level Chicago Center
Wed 09:04:21 PM 42.2458 -91.8514 88° East 487 560 45,000  Level Chicago Center
Wed 09:05:23 PM 42.2478 -91.6739 89° East 484 557 45,000  Level Chicago Center
Wed 09:06:25 PM 42.2503 -91.4597 89° East 485 558 45,000  Level Chicago Center
Wed 09:07:27 PM 42.2517 -91.2811 89° East 484 557 45,000  Level Chicago Center
Wed 09:08:29 PM 42.2536 -91.1050 89° East 480 552 45,000  Level Chicago Center
Wed 09:09:31 PM 42.2536 -90.9272 90° East 479 551 45,000  Level Chicago Center
Wed 09:10:33 PM 42.2539 -90.7158 90° East 478 550 45,000  Level Chicago Center
Wed 09:11:35 PM 42.2544 -90.5372 90° East 480 552 45,000  Level Chicago Center
Wed 09:12:37 PM 42.2550 -90.3603 90° East 479 551 45,000  Level Chicago Center
Wed 09:13:39 PM 42.2528 -90.1822 91° East 479 551 45,000  Level Chicago Center
Wed 09:14:41 PM 42.2539 -89.9692 90° East 480 552 45,000  Level Chicago Center
Wed 09:15:43 PM 42.2531 -89.7853 90° East 481 554 45,000  Level Chicago Center
Wed 09:16:45 PM 42.2522 -89.6047 90° East 482 555 45,000  Level Chicago Center
Wed 09:17:47 PM 42.2500 -89.4247 91° East 482 555 45,000  Level Chicago Center
Wed 09:18:49 PM 42.2492 -89.2439 90° East 485 558 45,000  Level Chicago Center
Wed 09:19:51 PM 42.2469 -89.0625 91° East 484 557 45,000  Level Chicago Center
Wed 09:20:53 PM 42.2442 -88.8506 91° East 487 560 45,000  Level Chicago Center
Wed 09:21:55 PM 42.2431 -88.6958 91° East 488 562 45,000  Level Chicago Center
Wed 09:22:57 PM 42.2397 -88.4792 91° East 485 558 45,000  Level Chicago Center
Wed 09:23:59 PM 42.2372 -88.2947 91° East 490 564 45,000  Level Chicago Center
Wed 09:25:01 PM 42.2331 -88.1144 92° East 484 557 45,000  Level Chicago Center
Wed 09:26:03 PM 42.2303 -87.9328 91° East 486 559 45,000  Level Chicago Center
Wed 09:27:04 PM 42.2253 -87.7539 92° East 481 554 45,000  Level Chicago Center
Wed 09:28:07 PM 42.2206 -87.5733 92° East 481 554 45,000  Level Chicago Center
Wed 09:29:08 PM 42.2158 -87.3572 92° East 481 554 45,000  Level Chicago Center
Wed 09:30:10 PM 42.2108 -87.1772 92° East 482 555 45,000  Level Chicago Center
Wed 09:31:12 PM 42.2061 -86.9967 92° East 483 556 45,000  Level Chicago Center
Wed 09:32:13 PM 42.2000 -86.8161 93° East 484 557 45,000  Level Chicago Center
Wed 09:33:15 PM 42.1972 -86.6472 91° East 485 558 45,000  Level Chicago Center
Wed 09:34:17 PM 42.1983 -86.4308 90° East 482 555 45,000  Level Chicago Center
Wed 09:35:19 PM 42.1969 -86.2500 91° East 483 556 45,000  Level Chicago Center
Wed 09:36:20 PM 42.1967 -86.0708 90° East 479 551 45,000  Level Chicago Center
Wed 09:37:22 PM 42.1953 -85.9064 91° East 478 550 45,000  Level Chicago Center
Wed 09:38:24 PM 42.1942 -85.6919 90° East 480 552 45,000  Level Chicago Center
Wed 09:39:26 PM 42.1911 -85.5133 91° East 481 554 45,000  Level Chicago Center
Wed 09:40:27 PM 42.1900 -85.3344 90° East 481 554 45,000  Level Chicago Center
Wed 09:40:57 PM 42.1931 -85.2361 88° East 476 548 45,000  Level Cleveland Center
Wed 09:41:57 PM 42.1919 -85.0511 90° East 481 554 45,000  Level Cleveland Center
Wed 09:42:57 PM 42.1886 -84.8686 91° East 481 554 45,000  Level Cleveland Center
Wed 09:43:57 PM 42.1847 -84.6889 92° East 475 547 45,000  Level Cleveland Center
Wed 09:44:57 PM 42.1778 -84.5286 93° East 482 555 45,000  Level Cleveland Center
Wed 09:45:57 PM 42.1733 -84.3461 92° East 482 555 45,000  Level Cleveland Center
Wed 09:46:57 PM 42.1708 -84.1639 91° East 482 555 45,000  Level Cleveland Center
Wed 09:47:57 PM 42.1658 -83.9842 92° East 482 555 45,000  Level Cleveland Center
Wed 09:48:57 PM 42.1628 -83.8047 91° East 482 555 45,000  Level Cleveland Center
Wed 09:49:57 PM 42.1572 -83.6225 92° East 482 555 45,000  Level Cleveland Center
Wed 09:50:57 PM 42.1536 -83.4431 91° East 482 555 45,000  Level Cleveland Center
Wed 09:51:57 PM 42.1497 -83.2578 92° East 482 555 45,000  Level Cleveland Center
Wed 09:52:57 PM 42.1417 -83.0558 93° East 488 562 45,000  Level Cleveland Center
Wed 09:53:57 PM 42.1350 -82.8792 93° East 478 550 45,000  Level Cleveland Center
Wed 09:54:57 PM 42.1281 -82.6997 93° East 478 550 45,000  Level Cleveland Center
Wed 09:55:57 PM 42.1250 -82.5233 91° East 478 550 45,000  Level Cleveland Center
Wed 09:56:57 PM 42.1194 -82.3439 92° East 478 550 45,000  Level Cleveland Center
Wed 09:57:57 PM 42.1117 -82.1644 93° East 478 550 45,000  Level Cleveland Center
Wed 09:58:57 PM 42.1056 -81.9908 93° East 478 550 45,000  Level Cleveland Center
Wed 09:59:57 PM 42.0972 -81.8117 94° East 478 550 45,000  Level Cleveland Center
Wed 10:00:57 PM 42.0906 -81.6353 93° East 472 543 45,000  Level Cleveland Center
Wed 10:01:57 PM 42.0836 -81.4783 93° East 472 543 45,000  Level Cleveland Center
Wed 10:02:57 PM 42.0744 -81.3019 94° East 472 543 45,000  Level Cleveland Center
Wed 10:03:57 PM 42.0672 -81.1231 93° East 477 549 45,000  Level Cleveland Center
Wed 10:04:57 PM 42.0594 -80.9494 93° East 477 549 45,000  Level Cleveland Center
Wed 10:05:57 PM 42.0472 -80.7706 95° East 477 549 45,000  Level Cleveland Center
Wed 10:06:57 PM 42.0122 -80.5803 104° East 477 549 45,000 -300 Level Cleveland Center
Wed 10:07:57 PM 41.9786 -80.4072 105° East 477 549 44,400 -800 Descending Cleveland Center
Wed 10:08:57 PM 41.9489 -80.2342 103° East 477 549 43,400 -1,000 Descending Cleveland Center
Wed 10:09:57 PM 41.9297 -80.0583 98° East 467 537 42,400 -1,000 Descending Cleveland Center
Wed 10:10:57 PM 41.9100 -79.8856 99° East 467 537 41,400 -1,000 Descending Cleveland Center
Wed 10:11:57 PM 41.8900 -79.7156 99° East 467 537 40,400 -1,000 Descending Cleveland Center
Wed 10:12:57 PM 41.8742 -79.5542 97° East 451 519 39,400 -950 Descending Cleveland Center
Wed 10:13:57 PM 41.8536 -79.3844 99° East 451 519 38,500 -700 Descending Cleveland Center
Wed 10:14:57 PM 41.8417 -79.2314 96° East 451 519 38,000 -450 Descending Cleveland Center
Wed 10:15:57 PM 41.8731 -79.0717 75° East 431 496 37,600 -850 Descending Cleveland Center
Wed 10:16:57 PM 41.9142 -78.8978 72° East 431 496 36,300 -1,150 Descending Cleveland Center
Wed 10:17:57 PM 41.9536 -78.7431 71° East 437 503 35,300 -1,050 Descending Cleveland Center
Wed 10:18:57 PM 41.9928 -78.5856 71° East 442 509 34,200 -1,100 Descending Cleveland Center
Wed 10:19:57 PM 42.0294 -78.4250 73° East 442 509 33,100 -600 Descending Cleveland Center
Wed 10:20:57 PM 42.0661 -78.2783 71° East 430 495 33,000 -50 Descending Cleveland Center
Wed 10:21:57 PM 42.1008 -78.1456 71° East 420 483 33,000 -750 Level Cleveland Center
Wed 10:22:57 PM 42.1542 -78.0008 64° Northeast 414 476 31,500 -1,600 Descending Cleveland Center
Wed 10:23:57 PM 42.2072 -77.8639 62° Northeast 414 476 29,800 -1,700 Descending Cleveland Center
Wed 10:24:57 PM 42.2411 -77.7139 73° East 414 476 28,100 -1,400 Descending Cleveland Center
Wed 10:25:57 PM 42.2706 -77.5608 75° East 414 476 27,000 -550 Descending Cleveland Center
Wed 10:26:57 PM 42.3019 -77.4164 74° East 408 470 27,000  Level Cleveland Center
Wed 10:29:27 PM 42.3786 -77.0278 75° East 408 470 27,000  Level Boston Center
Wed 10:30:27 PM 42.4075 -76.8781 75° East 413 475 27,000  Level Boston Center
Wed 10:31:27 PM 42.4358 -76.7336 75° East 413 475 27,000  Level Boston Center
Wed 10:32:27 PM 42.4644 -76.5864 75° East 413 475 27,000  Level Boston Center
Wed 10:33:27 PM 42.4925 -76.4389 75° East 413 475 27,000  Level Boston Center
Wed 10:34:27 PM 42.5081 -76.2906 82° East 413 475 27,000  Level Boston Center
Wed 10:35:27 PM 42.4522 -76.1519 119° Southeast 381 438 27,000  Level Boston Center
Wed 10:36:27 PM 42.3897 -76.0217 123° Southeast 394 453 27,000 -150 Level Boston Center
Wed 10:37:27 PM 42.3292 -75.8919 122° Southeast 407 468 26,700 -1,150 Descending Boston Center
Wed 10:38:27 PM 42.2783 -75.7739 120° Southeast 412 474 24,700 -2,050 Descending Boston Center
Wed 10:39:27 PM 42.2217 -75.6503 122° Southeast 412 474 22,600 -2,050 Descending Boston Center
Wed 10:40:27 PM 42.1644 -75.5297 123° Southeast 395 455 20,600 -2,000 Descending Boston Center
Wed 10:41:27 PM 42.1133 -75.4181 122° Southeast 373 429 18,600 -1,800 Descending Boston Center
Wed 10:42:27 PM 42.0619 -75.3067 122° Southeast 367 422 17,000 -727 Descending Boston Center
Wed 10:43:39 PM 42.0031 -75.1531 117° Southeast 366 421 17,000  Level Boston Center
Wed 10:44:39 PM 41.9500 -75.0194 118° Southeast 371 427 17,000 -750 Level Boston Center
Wed 10:45:39 PM 41.8958 -74.9253 128° Southeast 363 418 15,500 -1,800 Descending Boston Center
Wed 10:46:39 PM 41.8250 -74.8250 133° Southeast 346 398 13,400 -1,750 Descending Boston Center
Wed 10:47:39 PM 41.7744 -74.7561 135° Southeast 309 356 12,000 -1,500 Descending Boston Center
Wed 10:48:39 PM 41.7136 -74.6706 134° Southeast 290 334 10,400 -1,450 Descending Boston Center
Wed 10:49:39 PM 41.6667 -74.6106 136° Southeast 273 314 9,100 -1,200 Descending Boston Center
Wed 10:50:39 PM 41.6011 -74.5583 149° Southeast 263 303 8,000 -550 Descending Boston Center
Wed 10:51:39 PM 41.5383 -74.5700 188° South 241 277 8,000 -612 Level Boston Center
Wed 10:53:55 PM 41.3833 -74.6000 188° South 244 281 6,000 -827 Descending New York TRACON
Wed 10:54:55 PM 41.3167 -74.6333 201° Southwest 255 293 5,300 -1,000 Descending New York TRACON
Wed 10:55:55 PM 41.2500 -74.6500 191° South 243 280 4,000 -619 Descending New York TRACON
Wed 10:57:01 PM 41.1667 -74.6833 197° South 244 281 4,000 -143 Level New York TRACON
Wed 10:58:01 PM 41.1167 -74.6500 153° Southeast 247 284 3,700 -500 Descending New York TRACON
Wed 10:59:01 PM 41.0500 -74.6167 159° South 243 280 3,000 -350 Descending New York TRACON
Wed 11:00:01 PM 40.9833 -74.5667 150° Southeast 254 292 3,000  Level New York TRACON
Wed 11:01:01 PM 40.9167 -74.5167 150° Southeast 252 290 3,000  Level New York TRACON
Wed 11:02:01 PM 40.8667 -74.4833 153° Southeast 240 276 3,000  Level New York TRACON
Wed 11:03:01 PM 40.8000 -74.4333 150° Southeast 237 273 3,000  Level New York TRACON
Wed 11:04:01 PM 40.7667 -74.3667 123° Southeast 255 293 3,000 -474 Level New York TRACON
Wed 11:04:55 PM 40.7333 -74.3000 123° Southeast 235 270 2,100 -650 Descending New York TRACON
Wed 11:06:01 PM 40.7500 -74.2167 75° East 220 253 1,700 -250 Descending New York TRACON
Wed 11:06:55 PM 40.7833 -74.1667 49° Northeast 193 222 1,600 -316 Descending New York TRACON
Wed 11:07:55 PM 40.8167 -74.1167 49° Northeast 162 186 1,100 -600 Descending New York TRACON
Wed 11:08:55 PM 40.8333 -74.0833 57° Northeast 131 151 400 -700 Descending New York TRACON

Login

Don't have an account? Register now (free) for customized features, flight alerts, and more!